Portada
METAR-TAF:

METAR-TAF

Aeroports :

Udaipur, Índia

latitud: 24-37-04N, longitud: 73-53-46E, altitud: 513 m

Observació

L'informe es va fer fa 7 hores i 39 minuts, a les 13:30 UTC
Vent 2 kt del Est/Nord-Est
Temperatura 24°C
Humitat 22%
Pressió 1018 hPa
Visibilitat: 6000 m

METAR: VAUD 171330Z 06002KT 6000 NSC 24/01 Q1018 NOSIG

Hora: 02:39 (21:09 UTC)

Pronòstic

L'informe es va fer fa 13 hores i 9 minuts, a les 08:00 UTC
Pronòstic vàlid del 17 a les 09 UTC al 17 a les 18 UTC
Vent 5 kt del Est
Visibilitat: 6000 m
Evolucionant progressivament
l' 17 a les 12 UTC al 17 a les 14 UTC
Vent 3 kt amb direcció variable
Visibilitat: 3000 m
calitja

TAF: VAUD 170800Z 1709/1718 09005KT 6000 NSC BECMG 1712/1714 VRB03KT 3000 HZ

Observacions i pronòstics meteorològics de més de 4000 aeroports (METAR i TAF).

Les estacions disponibles són els punts grocs i vermells al mapa.

Posi el ratolí al punt desitjat per veure el nom de l'estació.

Feu clic per veure les observacions i els pronòstics meteorològics.

Per canviar el mapa: feu clic els botons verds amb una creu de color negre per apropar; al botó verd amb un guió per allunyar la imatge; o en les fletxes verdes per a mapes adjacents.


METAR-TAF: